Time;durP1;ratioP1;P1;durP2;ratioP2;P2;SDS_P1;SDS_P2;PMS_P1;PMS_P2;Temp;Humidity;BMP_temperature;BMP_pressure;BME280_temperature;BME280_humidity;BME280_pressure;Samples;Min_cycle;Max_cycle;Signal;HPM_P1;HPM_P2
2022/11/16 00:01:26;;;;;;;97.13;29.50;;;;;;;;;;5069830;28;20593;-71
2022/11/16 00:03:55;;;;;;;85.63;27.70;;;;;;;;;;5036297;28;20266;-71
2022/11/16 00:06:22;;;;;;;71.57;25.77;;;;;;;;;;5052736;28;20182;-71
2022/11/16 00:11:36;;;;;;;60.67;23.00;;;;;;;;;;5057472;28;20186;-71
2022/11/16 00:14:03;;;;;;;50.40;21.97;;;;;;;;;;5048959;28;20562;-71
2022/11/16 00:16:29;;;;;;;44.87;20.13;;;;;;;;;;5050191;28;20191;-71
2022/11/16 00:18:57;;;;;;;37.43;18.73;;;;;;;;;;5032529;28;20190;-71
2022/11/16 00:21:24;;;;;;;43.97;19.60;;;;;;;;;;5049309;28;20219;-71
2022/11/16 00:23:51;;;;;;;39.30;19.20;;;;;;;;;;5049861;28;20241;-71
2022/11/16 00:26:18;;;;;;;44.77;19.47;;;;;;;;;;5048582;28;20187;-71
2022/11/16 00:28:45;;;;;;;48.83;21.10;;;;;;;;;;5031452;28;20829;-72
2022/11/16 00:31:13;;;;;;;39.37;18.30;;;;;;;;;;5032465;28;20171;-71
2022/11/16 00:33:40;;;;;;;36.13;17.87;;;;;;;;;;5048806;28;20237;-71
2022/11/16 00:36:07;;;;;;;38.70;18.20;;;;;;;;;;5048045;28;20285;-71
2022/11/16 00:38:35;;;;;;;35.70;17.90;;;;;;;;;;5049562;28;20516;-71
2022/11/16 00:41:03;;;;;;;42.53;19.87;;;;;;;;;;5049716;28;20892;-71
2022/11/16 00:43:30;;;;;;;44.93;20.63;;;;;;;;;;5048235;28;20197;-71
2022/11/16 00:45:57;;;;;;;41.57;18.77;;;;;;;;;;5049783;28;20974;-71
2022/11/16 00:48:24;;;;;;;40.50;18.17;;;;;;;;;;5049791;28;20613;-71
2022/11/16 00:50:50;;;;;;;64.90;25.07;;;;;;;;;;5031722;28;20209;-71
2022/11/16 00:53:17;;;;;;;50.50;21.77;;;;;;;;;;5053013;28;20246;-71
2022/11/16 00:55:44;;;;;;;50.77;21.03;;;;;;;;;;5051402;28;20216;-71
2022/11/16 00:58:13;;;;;;;39.63;17.63;;;;;;;;;;5035005;28;20201;-71
2022/11/16 01:00:41;;;;;;;41.70;18.90;;;;;;;;;;5035388;28;20230;-71
2022/11/16 01:03:08;;;;;;;37.47;18.63;;;;;;;;;;5051457;28;20723;-71
2022/11/16 01:05:35;;;;;;;44.33;19.07;;;;;;;;;;5035016;28;20236;-71
2022/11/16 01:08:02;;;;;;;44.50;20.13;;;;;;;;;;5051213;28;20199;-71
2022/11/16 01:10:29;;;;;;;36.93;19.27;;;;;;;;;;5051050;28;20198;-71
2022/11/16 01:12:55;;;;;;;37.13;18.40;;;;;;;;;;5035068;28;20209;-72
2022/11/16 01:15:23;;;;;;;36.10;17.53;;;;;;;;;;5051070;28;20190;-72
2022/11/16 01:17:51;;;;;;;30.20;16.30;;;;;;;;;;5069037;28;20200;-71
2022/11/16 01:20:18;;;;;;;30.20;15.27;;;;;;;;;;5051160;28;20194;-71
2022/11/16 01:22:45;;;;;;;27.37;13.77;;;;;;;;;;5034586;28;20190;-71
2022/11/16 01:25:12;;;;;;;27.83;13.80;;;;;;;;;;5067956;28;20210;-71
2022/11/16 01:27:39;;;;;;;25.67;11.53;;;;;;;;;;5069122;28;20217;-71
2022/11/16 01:30:11;;;;;;;14.10;7.40;;;;;;;;;;5069094;28;20190;-72
2022/11/16 01:32:43;;;;;;;14.93;7.33;;;;;;;;;;5034554;28;20277;-71
2022/11/16 01:35:14;;;;;;;7.90;4.80;;;;;;;;;;5047736;28;20199;-71
2022/11/16 01:37:41;;;;;;;6.23;3.43;;;;;;;;;;5030997;28;20278;-71
2022/11/16 01:40:08;;;;;;;5.23;2.53;;;;;;;;;;5030675;28;20205;-71
2022/11/16 01:42:36;;;;;;;3.30;2.07;;;;;;;;;;5015495;28;20226;-71
2022/11/16 01:45:04;;;;;;;2.80;1.73;;;;;;;;;;5014676;28;20244;-71
2022/11/16 01:47:32;;;;;;;2.57;1.60;;;;;;;;;;5031201;28;20220;-71
2022/11/16 01:50:04;;;;;;;2.10;1.13;;;;;;;;;;5019491;28;20185;-71
2022/11/16 01:52:33;;;;;;;6.20;2.43;;;;;;;;;;5055335;28;20198;-71
2022/11/16 01:55:01;;;;;;;3.93;1.80;;;;;;;;;;5037961;28;20226;-71
2022/11/16 01:57:38;;;;;;;4.23;1.40;;;;;;;;;;5036689;28;20313;-71
2022/11/16 02:00:08;;;;;;;1.43;0.87;;;;;;;;;;5018506;28;20216;-71
2022/11/16 02:02:48;;;;;;;2.43;1.50;;;;;;;;;;5034892;28;20221;-71
2022/11/16 02:05:58;;;;;;;2.80;1.70;;;;;;;;;;5034944;28;20201;-71
2022/11/16 02:11:36;;;;;;;2.73;0.80;;;;;;;;;;5034788;28;20198;-71
2022/11/16 02:14:06;;;;;;;1.60;0.87;;;;;;;;;;5035506;28;20194;-71
2022/11/16 02:16:41;;;;;;;1.10;0.80;;;;;;;;;;5054629;28;20281;-71
2022/11/16 02:19:18;;;;;;;0.80;0.60;;;;;;;;;;5037602;28;20553;-71
2022/11/16 02:21:48;;;;;;;1.60;0.90;;;;;;;;;;5055139;28;20190;-71
2022/11/16 02:24:24;;;;;;;1.67;0.70;;;;;;;;;;5054410;28;20182;-71
2022/11/16 02:27:03;;;;;;;2.23;0.80;;;;;;;;;;5054131;28;20285;-71
2022/11/16 02:29:43;;;;;;;0.90;0.57;;;;;;;;;;5071722;28;20214;-71
2022/11/16 02:32:12;;;;;;;1.27;0.60;;;;;;;;;;5054516;28;20206;-71
2022/11/16 02:34:41;;;;;;;0.80;0.60;;;;;;;;;;5037598;28;20194;-71
2022/11/16 02:37:08;;;;;;;1.37;0.63;;;;;;;;;;5053196;28;20193;-71
2022/11/16 02:39:35;;;;;;;2.03;0.80;;;;;;;;;;5037868;28;20213;-71
2022/11/16 02:42:02;;;;;;;2.50;0.70;;;;;;;;;;5037388;28;20292;-71
2022/11/16 02:44:33;;;;;;;2.57;1.20;;;;;;;;;;5053936;28;20198;-71
2022/11/16 02:47:02;;;;;;;4.40;1.40;;;;;;;;;;5037645;28;20194;-71
2022/11/16 02:49:30;;;;;;;4.33;1.23;;;;;;;;;;5053501;28;20205;-71
2022/11/16 02:51:56;;;;;;;1.73;0.90;;;;;;;;;;5071916;28;20182;-71
2022/11/16 02:54:24;;;;;;;3.07;1.40;;;;;;;;;;5036866;28;20589;-71
2022/11/16 02:57:03;;;;;;;1.10;0.60;;;;;;;;;;5053663;28;20186;-71
2022/11/16 02:59:48;;;;;;;3.40;1.20;;;;;;;;;;5071576;28;20654;-71
2022/11/16 03:02:15;;;;;;;2.30;1.10;;;;;;;;;;5036146;28;20198;-71
2022/11/16 03:04:46;;;;;;;2.33;1.00;;;;;;;;;;5053324;28;20201;-71
2022/11/16 03:07:13;;;;;;;3.37;1.30;;;;;;;;;;5053698;28;20194;-71
2022/11/16 03:09:40;;;;;;;0.83;0.70;;;;;;;;;;5052893;28;20217;-71
2022/11/16 03:12:10;;;;;;;1.83;0.67;;;;;;;;;;5036811;28;20195;-71
2022/11/16 03:14:39;;;;;;;1.97;0.70;;;;;;;;;;5036907;28;20259;-71
2022/11/16 03:17:07;;;;;;;1.70;0.80;;;;;;;;;;5036590;28;20692;-71
2022/11/16 03:19:36;;;;;;;1.70;1.00;;;;;;;;;;5053569;28;20281;-71
2022/11/16 03:22:09;;;;;;;2.40;1.10;;;;;;;;;;5053315;28;20565;-71
2022/11/16 03:24:37;;;;;;;3.47;1.70;;;;;;;;;;5037003;28;20194;-71
2022/11/16 03:27:06;;;;;;;4.80;1.90;;;;;;;;;;5053063;28;20240;-70
2022/11/16 03:29:39;;;;;;;3.10;1.50;;;;;;;;;;5071091;28;20210;-71
2022/11/16 03:32:09;;;;;;;2.40;1.20;;;;;;;;;;5052228;28;20197;-71
2022/11/16 03:34:37;;;;;;;1.00;0.70;;;;;;;;;;5053031;28;21028;-71
2022/11/16 03:37:03;;;;;;;0.83;0.60;;;;;;;;;;5036324;28;20680;-71
2022/11/16 03:39:48;;;;;;;1.03;0.90;;;;;;;;;;5053017;28;20576;-71
2022/11/16 03:42:15;;;;;;;1.77;0.50;;;;;;;;;;5053137;28;20557;-71
2022/11/16 03:44:42;;;;;;;0.40;0.40;;;;;;;;;;5070821;28;20531;-71
2022/11/16 03:47:10;;;;;;;4.20;1.20;;;;;;;;;;5070599;28;20657;-71
2022/11/16 03:49:37;;;;;;;0.83;0.50;;;;;;;;;;5031435;28;20903;-71
2022/11/16 03:52:03;;;;;;;2.87;1.37;;;;;;;;;;5049482;28;20187;-71
2022/11/16 03:54:31;;;;;;;0.67;0.60;;;;;;;;;;5036021;28;20984;-71
2022/11/16 03:56:59;;;;;;;1.03;0.60;;;;;;;;;;5052347;28;20189;-71
2022/11/16 03:59:26;;;;;;;3.03;1.23;;;;;;;;;;5052391;28;20186;-71
2022/11/16 04:01:52;;;;;;;1.03;0.70;;;;;;;;;;5070442;28;20190;-71
2022/11/16 04:29:12;;;;;;;5.67;1.90;;;;;;;;;;5032185;28;20757;-71
2022/11/16 04:39:57;;;;;;;3.87;1.90;;;;;;;;;;5068696;28;20196;-70
2022/11/16 04:42:25;;;;;;;1.93;1.37;;;;;;;;;;5052248;28;20239;-71
2022/11/16 04:47:49;;;;;;;2.37;1.43;;;;;;;;;;5041565;28;20207;-71
2022/11/16 04:50:17;;;;;;;2.37;1.70;;;;;;;;;;5015179;28;20233;-71
2022/11/16 04:52:44;;;;;;;1.47;1.10;;;;;;;;;;5049187;28;20707;-71
2022/11/16 04:55:13;;;;;;;1.87;1.40;;;;;;;;;;5027934;28;20257;-70
2022/11/16 04:57:39;;;;;;;1.20;1.00;;;;;;;;;;5063627;28;20720;-71
2022/11/16 05:00:07;;;;;;;1.57;0.70;;;;;;;;;;5047405;28;20542;-71
2022/11/16 05:02:35;;;;;;;1.20;0.80;;;;;;;;;;5047280;28;20221;-71
2022/11/16 05:05:01;;;;;;;1.33;1.23;;;;;;;;;;5036479;28;20207;-71
2022/11/16 05:07:28;;;;;;;1.80;1.70;;;;;;;;;;5041531;28;20202;-71
2022/11/16 05:10:05;;;;;;;1.27;0.87;;;;;;;;;;5023934;28;20605;-71
2022/11/16 05:12:32;;;;;;;1.97;1.17;;;;;;;;;;4993160;28;20641;-72
2022/11/16 05:15:02;;;;;;;1.10;1.00;;;;;;;;;;5041854;28;20215;-73
2022/11/16 05:17:31;;;;;;;1.50;1.10;;;;;;;;;;5010539;28;20199;-74
2022/11/16 05:22:52;;;;;;;1.87;1.23;;;;;;;;;;5037308;28;20195;-72
2022/11/16 05:25:20;;;;;;;2.33;1.50;;;;;;;;;;5007386;28;20187;-72
2022/11/16 05:27:47;;;;;;;1.83;1.50;;;;;;;;;;5027817;28;20206;-72
2022/11/16 05:30:15;;;;;;;1.73;1.50;;;;;;;;;;5042949;28;20227;-71
2022/11/16 05:32:41;;;;;;;2.70;1.53;;;;;;;;;;5030610;28;20214;-71
2022/11/16 05:35:11;;;;;;;1.33;1.13;;;;;;;;;;5042226;28;20285;-73
2022/11/16 05:37:38;;;;;;;1.77;1.20;;;;;;;;;;5017391;28;20199;-74
2022/11/16 05:40:06;;;;;;;2.40;1.23;;;;;;;;;;5041842;28;20211;-73
2022/11/16 05:42:42;;;;;;;1.50;1.40;;;;;;;;;;5029086;28;20195;-71
2022/11/16 05:45:09;;;;;;;2.83;1.40;;;;;;;;;;5025792;28;20282;-71
2022/11/16 05:47:35;;;;;;;2.13;1.40;;;;;;;;;;5016058;28;20222;-71
2022/11/16 05:50:02;;;;;;;2.10;1.50;;;;;;;;;;5046885;28;20307;-71
2022/11/16 05:52:34;;;;;;;2.53;1.70;;;;;;;;;;5018582;28;20192;-71
2022/11/16 05:55:05;;;;;;;1.80;1.30;;;;;;;;;;5049815;28;20232;-71
2022/11/16 05:57:49;;;;;;;1.83;1.63;;;;;;;;;;5060661;28;20700;-71
2022/11/16 06:00:16;;;;;;;3.10;1.27;;;;;;;;;;5036512;28;20188;-71
2022/11/16 06:02:48;;;;;;;3.33;2.53;;;;;;;;;;5049411;28;20290;-71
2022/11/16 06:05:22;;;;;;;3.60;1.80;;;;;;;;;;5030650;28;20186;-71
2022/11/16 06:07:50;;;;;;;3.07;1.50;;;;;;;;;;5049272;28;20215;-71
2022/11/16 06:10:17;;;;;;;1.53;1.43;;;;;;;;;;5046592;28;20267;-71
2022/11/16 06:12:48;;;;;;;2.17;1.53;;;;;;;;;;5029053;28;20198;-71
2022/11/16 06:15:35;;;;;;;2.70;1.70;;;;;;;;;;5046205;28;20557;-71
2022/11/16 06:18:02;;;;;;;2.87;1.50;;;;;;;;;;5057782;28;20282;-71
2022/11/16 06:20:29;;;;;;;3.30;2.00;;;;;;;;;;5041707;28;20249;-73
2022/11/16 06:22:55;;;;;;;1.70;1.60;;;;;;;;;;5045213;28;20727;-73
2022/11/16 06:25:23;;;;;;;2.67;2.10;;;;;;;;;;5040833;28;20199;-74
2022/11/16 06:27:49;;;;;;;4.43;3.70;;;;;;;;;;5034734;28;20486;-73
2022/11/16 06:30:18;;;;;;;1.70;1.60;;;;;;;;;;5014806;28;20670;-73
2022/11/16 06:32:44;;;;;;;2.30;1.60;;;;;;;;;;5048880;28;20554;-72
2022/11/16 06:35:13;;;;;;;1.93;1.43;;;;;;;;;;5031235;28;20289;-72
2022/11/16 06:37:39;;;;;;;2.50;1.50;;;;;;;;;;5052626;28;20175;-72
2022/11/16 06:40:07;;;;;;;5.27;2.83;;;;;;;;;;5034762;28;20287;-72
2022/11/16 06:42:37;;;;;;;8.63;3.87;;;;;;;;;;5030953;28;20205;-72
2022/11/16 06:45:05;;;;;;;7.93;3.20;;;;;;;;;;5045640;28;20863;-72
2022/11/16 06:47:38;;;;;;;3.50;2.10;;;;;;;;;;5043479;28;20929;-70
2022/11/16 06:50:06;;;;;;;9.77;4.23;;;;;;;;;;5035261;28;20245;-68
2022/11/16 06:52:33;;;;;;;7.03;3.00;;;;;;;;;;5051900;28;20205;-68
2022/11/16 06:55:00;;;;;;;4.20;1.50;;;;;;;;;;5048614;28;20230;-71
2022/11/16 06:57:32;;;;;;;3.87;2.10;;;;;;;;;;5032122;28;20198;-70
2022/11/16 06:59:59;;;;;;;3.33;2.00;;;;;;;;;;5049149;28;20557;-71
2022/11/16 07:02:44;;;;;;;6.37;3.40;;;;;;;;;;5051686;28;20278;-71
2022/11/16 07:05:14;;;;;;;4.87;2.30;;;;;;;;;;5051317;28;20189;-72
2022/11/16 07:07:41;;;;;;;2.13;1.90;;;;;;;;;;5047306;28;20808;-72
2022/11/16 07:10:08;;;;;;;6.63;2.83;;;;;;;;;;5017748;28;20237;-70
2022/11/16 07:12:35;;;;;;;5.40;2.30;;;;;;;;;;5035959;28;20596;-69
2022/11/16 07:15:03;;;;;;;5.63;2.50;;;;;;;;;;5048870;28;20198;-71
2022/11/16 07:17:32;;;;;;;4.47;2.30;;;;;;;;;;5010552;28;20198;-72
2022/11/16 07:20:02;;;;;;;4.07;2.30;;;;;;;;;;5048547;28;20199;-71
2022/11/16 07:22:46;;;;;;;2.20;1.97;;;;;;;;;;5047512;28;20807;-70
2022/11/16 07:25:15;;;;;;;3.03;1.70;;;;;;;;;;5051350;28;20560;-70
2022/11/16 07:28:03;;;;;;;8.73;4.00;;;;;;;;;;5069409;28;20705;-72
2022/11/16 07:30:32;;;;;;;14.33;4.93;;;;;;;;;;5048392;28;20493;-71
2022/11/16 07:33:08;;;;;;;11.73;3.97;;;;;;;;;;5047081;28;20219;-71
2022/11/16 07:36:04;;;;;;;16.87;5.23;;;;;;;;;;5038386;28;20205;-72
2022/11/16 07:38:34;;;;;;;13.03;3.93;;;;;;;;;;5047877;28;20202;-72
2022/11/16 07:41:22;;;;;;;13.73;4.43;;;;;;;;;;5032452;28;20436;-70
2022/11/16 07:44:21;;;;;;;18.17;4.67;;;;;;;;;;5042364;28;20181;-70
2022/11/16 07:47:01;;;;;;;7.97;3.57;;;;;;;;;;5044225;28;20454;-69
2022/11/16 07:49:47;;;;;;;14.83;4.43;;;;;;;;;;5030294;28;20221;-70
2022/11/16 07:52:17;;;;;;;5.17;2.53;;;;;;;;;;5050876;28;20505;-72
2022/11/16 07:54:54;;;;;;;12.30;3.67;;;;;;;;;;5047421;28;20559;-70
2022/11/16 07:57:24;;;;;;;4.33;2.13;;;;;;;;;;5033243;28;20510;-70
2022/11/16 08:00:08;;;;;;;8.67;2.43;;;;;;;;;;5044460;28;20650;-70
2022/11/16 08:02:46;;;;;;;7.80;2.63;;;;;;;;;;5037814;28;20433;-69
2022/11/16 08:05:17;;;;;;;3.27;1.90;;;;;;;;;;5049499;28;20289;-69
2022/11/16 08:07:44;;;;;;;8.67;2.97;;;;;;;;;;5051761;28;20471;-69
2022/11/16 08:10:11;;;;;;;14.70;5.03;;;;;;;;;;5030049;28;20226;-69
2022/11/16 08:12:39;;;;;;;7.20;3.40;;;;;;;;;;5022334;28;20453;-69
2022/11/16 08:15:06;;;;;;;7.73;2.73;;;;;;;;;;5050482;28;20557;-71
2022/11/16 08:17:33;;;;;;;12.83;3.70;;;;;;;;;;5047344;28;20861;-73
2022/11/16 08:20:02;;;;;;;5.80;2.20;;;;;;;;;;5047030;28;20744;-73
2022/11/16 08:22:30;;;;;;;6.37;2.37;;;;;;;;;;5047545;28;20537;-71
2022/11/16 08:24:57;;;;;;;3.23;2.23;;;;;;;;;;5014337;28;20440;-71
2022/11/16 08:27:24;;;;;;;1.97;1.60;;;;;;;;;;5036647;28;20960;-72
2022/11/16 08:29:54;;;;;;;6.13;2.40;;;;;;;;;;5045996;28;20249;-74
2022/11/16 08:32:21;;;;;;;3.50;1.83;;;;;;;;;;5058379;28;20199;-72
2022/11/16 08:35:07;;;;;;;2.13;1.47;;;;;;;;;;5045145;28;20436;-70
2022/11/16 08:37:33;;;;;;;5.07;2.33;;;;;;;;;;5030779;28;20436;-70
2022/11/16 08:40:02;;;;;;;3.33;1.10;;;;;;;;;;5046915;28;20456;-70
2022/11/16 08:42:33;;;;;;;1.87;1.17;;;;;;;;;;5047629;28;20499;-70
2022/11/16 08:45:06;;;;;;;5.53;2.10;;;;;;;;;;5065665;28;20436;-72
2022/11/16 08:47:35;;;;;;;3.67;1.50;;;;;;;;;;5034005;28;20551;-71
2022/11/16 08:50:03;;;;;;;1.90;1.30;;;;;;;;;;5049579;28;20504;-73
2022/11/16 08:52:31;;;;;;;1.93;1.13;;;;;;;;;;5050172;28;20444;-71
2022/11/16 08:54:59;;;;;;;2.70;1.50;;;;;;;;;;5029793;28;20534;-70
2022/11/16 08:57:26;;;;;;;2.60;1.30;;;;;;;;;;5046877;28;20962;-70
2022/11/16 08:59:57;;;;;;;2.83;1.60;;;;;;;;;;5048789;28;20858;-70
2022/11/16 09:02:24;;;;;;;2.57;1.70;;;;;;;;;;5060424;28;20440;-70
2022/11/16 09:04:51;;;;;;;2.43;1.97;;;;;;;;;;5068150;28;20505;-70
2022/11/16 09:07:19;;;;;;;2.20;1.63;;;;;;;;;;5068052;28;20440;-71
2022/11/16 09:09:45;;;;;;;3.87;2.07;;;;;;;;;;5067835;28;20590;-67
2022/11/16 09:12:12;;;;;;;2.27;1.60;;;;;;;;;;5053194;28;20857;-68
2022/11/16 09:14:39;;;;;;;2.30;1.60;;;;;;;;;;5062004;28;20431;-68
2022/11/16 09:17:23;;;;;;;3.83;1.80;;;;;;;;;;5058711;28;20413;-71
2022/11/16 09:19:50;;;;;;;4.20;1.73;;;;;;;;;;5062827;28;20508;-70
2022/11/16 09:22:17;;;;;;;3.27;1.70;;;;;;;;;;5059838;28;20437;-68
2022/11/16 09:24:44;;;;;;;1.77;1.40;;;;;;;;;;5062683;28;20800;-69
2022/11/16 09:27:10;;;;;;;5.00;1.23;;;;;;;;;;5060061;28;20441;-69
2022/11/16 09:29:37;;;;;;;2.40;1.30;;;;;;;;;;5039667;28;21087;-69
2022/11/16 09:32:04;;;;;;;3.13;1.27;;;;;;;;;;5046181;28;20445;-69
2022/11/16 09:34:32;;;;;;;1.33;1.17;;;;;;;;;;5066795;28;20440;-70
2022/11/16 09:36:59;;;;;;;1.80;1.30;;;;;;;;;;5055844;28;20834;-69
2022/11/16 09:39:31;;;;;;;1.30;1.00;;;;;;;;;;5023159;28;20452;-70
2022/11/16 09:41:59;;;;;;;1.40;0.90;;;;;;;;;;5026111;28;20801;-72
2022/11/16 09:44:33;;;;;;;3.00;1.17;;;;;;;;;;5066330;28;20441;-71
2022/11/16 09:47:00;;;;;;;1.57;0.90;;;;;;;;;;5033443;28;21006;-72
2022/11/16 09:49:31;;;;;;;2.10;0.83;;;;;;;;;;5022189;28;21017;-72
2022/11/16 09:52:00;;;;;;;2.47;0.90;;;;;;;;;;5034318;28;20973;-72
2022/11/16 09:54:29;;;;;;;1.50;1.10;;;;;;;;;;5040513;28;20475;-72
2022/11/16 09:56:59;;;;;;;2.03;1.20;;;;;;;;;;5023180;28;20800;-72
2022/11/16 09:59:28;;;;;;;2.00;1.10;;;;;;;;;;5037529;28;20440;-71
2022/11/16 10:02:14;;;;;;;2.93;1.47;;;;;;;;;;5035308;28;20432;-70
2022/11/16 10:05:00;;;;;;;2.17;1.57;;;;;;;;;;5067254;28;20440;-72
2022/11/16 10:07:31;;;;;;;3.03;1.47;;;;;;;;;;5067474;28;20448;-74
2022/11/16 10:09:58;;;;;;;3.10;1.43;;;;;;;;;;5045430;28;20465;-73
2022/11/16 10:12:42;;;;;;;3.93;2.37;;;;;;;;;;5042598;28;20448;-71
2022/11/16 10:15:28;;;;;;;1.37;1.00;;;;;;;;;;5053106;28;20448;-70
2022/11/16 10:17:58;;;;;;;1.73;1.40;;;;;;;;;;5071501;28;20522;-71
2022/11/16 10:20:43;;;;;;;3.13;1.50;;;;;;;;;;5062817;28;20444;-72
2022/11/16 10:23:29;;;;;;;7.77;3.47;;;;;;;;;;5070666;28;20447;-70
2022/11/16 10:25:57;;;;;;;6.07;3.00;;;;;;;;;;5071074;28;20531;-73
2022/11/16 10:28:39;;;;;;;2.93;1.50;;;;;;;;;;5036296;28;20854;-70
2022/11/16 10:31:15;;;;;;;1.50;0.70;;;;;;;;;;5052129;28;20967;-71
2022/11/16 10:33:42;;;;;;;1.00;0.80;;;;;;;;;;5071124;28;20773;-73
2022/11/16 10:36:13;;;;;;;6.17;3.80;;;;;;;;;;5036589;28;20432;-70
2022/11/16 10:38:55;;;;;;;2.07;1.50;;;;;;;;;;5068211;28;20451;-73
2022/11/16 10:41:25;;;;;;;3.30;1.47;;;;;;;;;;5028928;28;20918;-71
2022/11/16 10:43:51;;;;;;;3.83;1.97;;;;;;;;;;5050344;28;20421;-70
2022/11/16 10:46:21;;;;;;;3.17;1.80;;;;;;;;;;5049277;28;20491;-71
2022/11/16 10:49:03;;;;;;;3.70;2.07;;;;;;;;;;5052360;28;20436;-69
2022/11/16 10:51:30;;;;;;;3.43;1.77;;;;;;;;;;5064755;28;20574;-70
2022/11/16 10:53:57;;;;;;;5.73;3.07;;;;;;;;;;5044862;28;20492;-70
2022/11/16 10:56:24;;;;;;;2.73;1.60;;;;;;;;;;5057601;28;20456;-69
2022/11/16 10:58:54;;;;;;;3.50;1.67;;;;;;;;;;5013007;28;20496;-69
2022/11/16 11:01:39;;;;;;;2.20;0.90;;;;;;;;;;5022102;28;20452;-70
2022/11/16 11:04:30;;;;;;;1.87;1.30;;;;;;;;;;5069341;28;20943;-70
2022/11/16 11:07:16;;;;;;;1.90;1.30;;;;;;;;;;5061561;28;20479;-69
2022/11/16 11:09:45;;;;;;;1.00;0.50;;;;;;;;;;5068914;28;20440;-71
2022/11/16 11:15:11;;;;;;;1.93;0.70;;;;;;;;;;5050782;28;21001;-69
2022/11/16 11:17:39;;;;;;;1.07;0.80;;;;;;;;;;5050874;28;20451;-69
2022/11/16 11:20:15;;;;;;;1.30;0.87;;;;;;;;;;5034127;28;21026;-68
2022/11/16 11:22:54;;;;;;;1.77;0.90;;;;;;;;;;5066489;28;20526;-69
2022/11/16 11:25:22;;;;;;;1.50;0.87;;;;;;;;;;5034079;28;20769;-69
2022/11/16 11:27:49;;;;;;;0.80;0.80;;;;;;;;;;5041734;28;20441;-71
2022/11/16 11:30:20;;;;;;;2.17;1.33;;;;;;;;;;5030971;28;20463;-70
2022/11/16 11:32:46;;;;;;;1.57;0.97;;;;;;;;;;5067468;28;20835;-68
2022/11/16 11:35:29;;;;;;;2.00;0.90;;;;;;;;;;5068922;28;20792;-67
2022/11/16 11:37:56;;;;;;;1.77;1.17;;;;;;;;;;5047679;28;20495;-69
2022/11/16 11:40:29;;;;;;;1.33;1.10;;;;;;;;;;5035325;28;20428;-68
2022/11/16 11:42:56;;;;;;;2.60;1.17;;;;;;;;;;5033087;28;21078;-67
2022/11/16 11:45:24;;;;;;;1.37;1.17;;;;;;;;;;5061870;28;20444;-67
2022/11/16 11:47:51;;;;;;;1.57;1.00;;;;;;;;;;5030537;28;20476;-69
2022/11/16 11:50:31;;;;;;;2.10;1.10;;;;;;;;;;5049922;28;20534;-68
2022/11/16 11:53:05;;;;;;;2.37;1.00;;;;;;;;;;5050835;28;20432;-69
2022/11/16 11:55:32;;;;;;;1.10;1.00;;;;;;;;;;5049048;28;20439;-69
2022/11/16 11:58:00;;;;;;;2.13;1.40;;;;;;;;;;5047667;28;20491;-67
2022/11/16 12:00:29;;;;;;;1.47;1.23;;;;;;;;;;5050244;28;20443;-69
2022/11/16 12:03:34;;;;;;;2.77;1.20;;;;;;;;;;5046955;28;20460;-68
2022/11/16 12:06:20;;;;;;;2.13;1.50;;;;;;;;;;5007593;28;20451;-67
2022/11/16 12:08:46;;;;;;;4.43;2.90;;;;;;;;;;4999181;28;20423;-67
2022/11/16 12:11:22;;;;;;;3.63;2.10;;;;;;;;;;5017538;28;21002;-71
2022/11/16 12:14:08;;;;;;;2.47;1.50;;;;;;;;;;5033588;28;20455;-70
2022/11/16 12:16:40;;;;;;;1.80;1.40;;;;;;;;;;5068284;28;20444;-69
2022/11/16 12:19:14;;;;;;;4.83;2.10;;;;;;;;;;5068208;28;20463;-70
2022/11/16 12:21:50;;;;;;;2.83;1.40;;;;;;;;;;5045980;28;20433;-70
2022/11/16 12:24:21;;;;;;;3.40;1.90;;;;;;;;;;4998107;28;20452;-70
2022/11/16 12:26:48;;;;;;;1.30;1.20;;;;;;;;;;5042028;28;20427;-70
2022/11/16 12:29:33;;;;;;;2.43;1.30;;;;;;;;;;5068484;28;20443;-68
2022/11/16 12:32:24;;;;;;;7.07;1.90;;;;;;;;;;5049049;28;20491;-69
2022/11/16 12:35:18;;;;;;;4.00;2.00;;;;;;;;;;5050349;28;20432;-69
2022/11/16 12:38:08;;;;;;;3.40;1.50;;;;;;;;;;5065302;28;20506;-69
2022/11/16 12:40:37;;;;;;;2.30;1.20;;;;;;;;;;5030217;28;20456;-67
2022/11/16 12:43:04;;;;;;;1.17;0.90;;;;;;;;;;5044879;28;20500;-67
2022/11/16 12:45:50;;;;;;;3.10;1.70;;;;;;;;;;5050834;28;20441;-68
2022/11/16 12:48:36;;;;;;;1.93;1.27;;;;;;;;;;5068154;28;20441;-69
2022/11/16 12:51:09;;;;;;;2.40;1.30;;;;;;;;;;5066711;28;20502;-68
2022/11/16 12:53:44;;;;;;;1.80;1.30;;;;;;;;;;5026963;28;20834;-71
2022/11/16 12:56:13;;;;;;;2.83;1.10;;;;;;;;;;5030697;28;20441;-70
2022/11/16 12:58:52;;;;;;;2.40;1.47;;;;;;;;;;5046618;28;20433;-67
2022/11/16 13:01:36;;;;;;;1.60;1.30;;;;;;;;;;5038872;28;20528;-68
2022/11/16 13:04:08;;;;;;;1.70;1.20;;;;;;;;;;5050293;28;20436;-69
2022/11/16 13:06:37;;;;;;;3.37;1.40;;;;;;;;;;5050505;28;20444;-67
2022/11/16 13:09:06;;;;;;;2.30;1.53;;;;;;;;;;5050094;28;20790;-69
2022/11/16 13:11:34;;;;;;;2.23;1.40;;;;;;;;;;5048470;28;20515;-67
2022/11/16 13:14:03;;;;;;;4.60;2.17;;;;;;;;;;5046974;28;20520;-69
2022/11/16 13:16:30;;;;;;;3.50;2.40;;;;;;;;;;5048096;28;20943;-70
2022/11/16 13:18:57;;;;;;;2.57;1.67;;;;;;;;;;5067977;28;20432;-70
2022/11/16 13:21:33;;;;;;;3.73;1.90;;;;;;;;;;5045994;28;20540;-69
2022/11/16 13:24:00;;;;;;;3.10;1.50;;;;;;;;;;5045840;28;20431;-67
2022/11/16 13:26:29;;;;;;;5.47;1.77;;;;;;;;;;5067682;28;20443;-68
2022/11/16 13:28:56;;;;;;;3.67;1.50;;;;;;;;;;5049999;28;20451;-68
2022/11/16 13:31:26;;;;;;;3.77;1.70;;;;;;;;;;5051585;28;20482;-68
2022/11/16 13:33:54;;;;;;;10.67;4.00;;;;;;;;;;5051649;28;20445;-68
2022/11/16 13:36:30;;;;;;;13.83;5.77;;;;;;;;;;5052330;28;20511;-69
2022/11/16 13:38:57;;;;;;;11.07;4.00;;;;;;;;;;5069514;28;20847;-68
2022/11/16 13:41:33;;;;;;;10.43;3.73;;;;;;;;;;5069628;28;20436;-68
2022/11/16 13:44:20;;;;;;;2.50;1.40;;;;;;;;;;5070157;28;20769;-68
2022/11/16 13:46:49;;;;;;;10.13;3.73;;;;;;;;;;5069590;28;20440;-68
2022/11/16 13:49:24;;;;;;;3.03;1.60;;;;;;;;;;5057093;28;20448;-69
2022/11/16 13:51:52;;;;;;;1.60;1.30;;;;;;;;;;5073996;28;20570;-68
2022/11/16 13:54:28;;;;;;;5.77;2.63;;;;;;;;;;5055731;28;20812;-68
2022/11/16 13:57:25;;;;;;;3.60;1.90;;;;;;;;;;5058449;28;20428;-68
2022/11/16 14:00:06;;;;;;;7.73;3.03;;;;;;;;;;5048584;28;20437;-68
2022/11/16 14:02:37;;;;;;;4.40;2.53;;;;;;;;;;5040035;28;20445;-68
2022/11/16 14:05:22;;;;;;;2.10;1.70;;;;;;;;;;5068412;28;20434;-68
2022/11/16 14:07:50;;;;;;;2.50;1.80;;;;;;;;;;5060799;28;20440;-67
2022/11/16 14:10:33;;;;;;;3.27;2.20;;;;;;;;;;5075029;28;20428;-67
2022/11/16 14:13:00;;;;;;;5.07;2.60;;;;;;;;;;5070372;28;21247;-69
2022/11/16 14:15:27;;;;;;;4.50;2.60;;;;;;;;;;5037453;28;20422;-70
2022/11/16 14:17:59;;;;;;;3.93;2.40;;;;;;;;;;5042615;28;20504;-67
2022/11/16 14:20:31;;;;;;;4.73;2.83;;;;;;;;;;5055263;28;20425;-67
2022/11/16 14:23:13;;;;;;;5.03;2.60;;;;;;;;;;5053847;28;21006;-67
2022/11/16 14:25:43;;;;;;;6.97;3.63;;;;;;;;;;5074824;28;20791;-68
2022/11/16 14:28:10;;;;;;;5.03;2.50;;;;;;;;;;5056665;28;20490;-68
2022/11/16 14:30:54;;;;;;;8.80;3.67;;;;;;;;;;5074679;28;20432;-67
2022/11/16 14:33:31;;;;;;;5.37;2.70;;;;;;;;;;5042362;28;20769;-67
2022/11/16 14:35:58;;;;;;;3.57;2.00;;;;;;;;;;5062051;28;20427;-67
2022/11/16 14:38:28;;;;;;;6.70;2.70;;;;;;;;;;5048928;28;20507;-68
2022/11/16 14:40:56;;;;;;;8.67;3.13;;;;;;;;;;5052163;28;20451;-67
2022/11/16 14:43:37;;;;;;;3.30;2.50;;;;;;;;;;5068384;28;20432;-68
2022/11/16 14:46:12;;;;;;;9.23;4.37;;;;;;;;;;5056526;28;20445;-66
2022/11/16 14:48:43;;;;;;;4.43;2.60;;;;;;;;;;5039038;28;20863;-67
2022/11/16 14:51:13;;;;;;;4.07;2.27;;;;;;;;;;5051866;28;20840;-67
2022/11/16 14:53:40;;;;;;;5.33;2.50;;;;;;;;;;5063678;28;20465;-69
2022/11/16 14:56:09;;;;;;;4.77;2.90;;;;;;;;;;5046231;28;20995;-67
2022/11/16 14:58:57;;;;;;;4.57;3.13;;;;;;;;;;5047424;28;20418;-69
2022/11/16 15:01:28;;;;;;;5.40;2.60;;;;;;;;;;5052790;28;20438;-68
2022/11/16 15:04:14;;;;;;;6.83;3.40;;;;;;;;;;5050315;28;20405;-68
2022/11/16 15:06:46;;;;;;;4.07;2.60;;;;;;;;;;5037145;28;20437;-68
2022/11/16 15:09:14;;;;;;;4.60;2.60;;;;;;;;;;5073019;28;20996;-68
2022/11/16 15:14:28;;;;;;;4.83;2.90;;;;;;;;;;5069234;28;20849;-68
2022/11/16 15:16:55;;;;;;;4.13;2.90;;;;;;;;;;5073352;28;20429;-68
2022/11/16 15:19:22;;;;;;;5.07;2.97;;;;;;;;;;5038647;28;20521;-68
2022/11/16 15:21:58;;;;;;;6.00;3.23;;;;;;;;;;5035566;28;20437;-68
2022/11/16 15:24:32;;;;;;;5.07;3.23;;;;;;;;;;5033892;28;20483;-68
2022/11/16 15:27:08;;;;;;;3.50;2.50;;;;;;;;;;5072764;28;20807;-68
2022/11/16 15:29:35;;;;;;;9.60;4.33;;;;;;;;;;5071971;28;20571;-68
2022/11/16 15:32:02;;;;;;;7.27;3.90;;;;;;;;;;5072581;28;20476;-68
2022/11/16 15:34:28;;;;;;;13.23;6.00;;;;;;;;;;5055036;28;20437;-68
2022/11/16 15:36:55;;;;;;;12.67;5.97;;;;;;;;;;5055211;28;20427;-68
2022/11/16 15:39:22;;;;;;;16.93;7.03;;;;;;;;;;5072326;28;20436;-68
2022/11/16 15:41:49;;;;;;;12.20;5.00;;;;;;;;;;5055271;28;20473;-68
2022/11/16 15:44:16;;;;;;;6.67;3.63;;;;;;;;;;5051233;28;20442;-68
2022/11/16 15:46:44;;;;;;;8.07;4.10;;;;;;;;;;5050346;28;20548;-68
2022/11/16 15:49:29;;;;;;;6.93;3.60;;;;;;;;;;5051598;28;20429;-67
2022/11/16 15:51:57;;;;;;;4.10;3.27;;;;;;;;;;5070265;28;20472;-67
2022/11/16 15:54:26;;;;;;;8.93;3.40;;;;;;;;;;5072429;28;20464;-67
2022/11/16 15:56:54;;;;;;;6.10;3.23;;;;;;;;;;5069876;28;20456;-68